Time;durP1;ratioP1;P1;durP2;ratioP2;P2;SDS_P1;SDS_P2;PMS_P1;PMS_P2;Temp;Humidity;BMP_temperature;BMP_pressure;BME280_temperature;BME280_humidity;BME280_pressure;Samples;Min_cycle;Max_cycle;Signal;HPM_P1;HPM_P2
2022/11/02 00:02:15;;;;;;;;;;;;;;;15.50;100.00;99009.38;5037629;28;19968;-43
2022/11/02 00:04:40;;;;;;;;;;;;;;;15.67;100.00;99001.56;5038125;28;20352;-42
2022/11/02 00:07:05;;;;;;;;;;;;;;;15.96;100.00;98996.59;5036853;28;20320;-43
2022/11/02 00:09:30;;;;;;;;;;;;;;;15.95;100.00;98994.91;5035973;28;20380;-43
2022/11/02 00:11:55;;;;;;;;;;;;;;;15.79;100.00;98990.53;5039261;28;20378;-43
2022/11/02 00:14:21;;;;;;;;;;;;;;;16.02;100.00;98984.09;5041720;28;20309;-42
2022/11/02 00:16:46;;;;;;;;;;;;;;;15.73;100.00;98993.47;5042757;28;20384;-42
2022/11/02 00:19:11;;;;;;;;;;;;;;;16.08;100.00;98980.34;5041349;28;20947;-42
2022/11/02 00:21:37;;;;;;;;;;;;;;;15.47;100.00;98985.25;5042645;28;19917;-43
2022/11/02 00:24:02;;;;;;;;;;;;;;;15.81;100.00;98986.09;5041020;28;20474;-42
2022/11/02 00:26:27;;;;;;;;;;;;;;;15.95;100.00;98984.53;5040005;28;20271;-43
2022/11/02 00:28:53;;;;;;;;;;;;;;;16.00;100.00;98998.09;5040315;28;19970;-42
2022/11/02 00:31:18;;;;;;;;;;;;;;;15.93;100.00;98997.59;5040754;28;19921;-43
2022/11/02 00:33:43;;;;;;;;;;;;;;;15.98;100.00;98973.97;5041244;28;20658;-42
2022/11/02 00:36:08;;;;;;;;;;;;;;;16.31;100.00;98977.31;5041094;28;19921;-43
2022/11/02 00:38:34;;;;;;;;;;;;;;;16.30;100.00;98957.41;5041483;28;19928;-43
2022/11/02 00:40:59;;;;;;;;;;;;;;;15.69;100.00;98976.31;5040737;28;19920;-43
2022/11/02 00:43:24;;;;;;;;;;;;;;;15.89;100.00;98964.91;5041970;28;19947;-42
2022/11/02 00:45:49;;;;;;;;;;;;;;;16.62;100.00;98949.56;5041227;28;20127;-43
2022/11/02 00:48:14;;;;;;;;;;;;;;;16.41;100.00;98959.41;5041647;28;20023;-43
2022/11/02 00:50:40;;;;;;;;;;;;;;;16.46;100.00;98965.19;5040322;28;19965;-42
2022/11/02 00:53:05;;;;;;;;;;;;;;;16.07;100.00;98958.69;5042646;28;19971;-43
2022/11/02 00:55:30;;;;;;;;;;;;;;;15.88;100.00;98963.25;5041632;28;21049;-42
2022/11/02 00:57:55;;;;;;;;;;;;;;;16.02;100.00;98960.72;5041337;28;19924;-43
2022/11/02 01:00:21;;;;;;;;;;;;;;;16.51;100.00;98952.78;5040981;28;19932;-43
2022/11/02 01:02:46;;;;;;;;;;;;;;;16.21;100.00;98960.53;5037812;28;19928;-43
2022/11/02 01:05:11;;;;;;;;;;;;;;;15.90;100.00;98961.41;5038882;28;19944;-43
2022/11/02 01:07:36;;;;;;;;;;;;;;;16.59;100.00;98949.75;5038558;28;19929;-43
2022/11/02 01:10:02;;;;;;;;;;;;;;;17.16;100.00;98953.41;5040009;28;19921;-43
2022/11/02 01:12:28;;;;;;;;;;;;;;;16.65;100.00;98954.59;5040491;28;20022;-42
2022/11/02 01:14:53;;;;;;;;;;;;;;;16.15;100.00;98945.31;5041199;28;20366;-43
2022/11/02 01:17:19;;;;;;;;;;;;;;;16.07;100.00;98969.09;5040785;28;20028;-43
2022/11/02 01:19:44;;;;;;;;;;;;;;;16.32;100.00;98972.94;5039183;28;19927;-42
2022/11/02 01:22:10;;;;;;;;;;;;;;;16.75;100.00;98954.06;5039045;28;19925;-42
2022/11/02 01:24:35;;;;;;;;;;;;;;;15.99;100.00;98978.25;5038915;28;19931;-43
2022/11/02 01:27:00;;;;;;;;;;;;;;;16.52;100.00;98964.03;5039028;28;19924;-43
2022/11/02 01:29:25;;;;;;;;;;;;;;;16.62;100.00;98953.91;5039583;28;19935;-43
2022/11/02 01:31:52;;;;;;;;;;;;;;;16.17;100.00;98974.63;5040838;28;19927;-43
2022/11/02 01:34:18;;;;;;;;;;;;;;;16.63;100.00;98964.25;5040205;28;19920;-43
2022/11/02 01:36:43;;;;;;;;;;;;;;;16.51;100.00;98962.31;5040852;28;19990;-43
2022/11/02 01:39:08;;;;;;;;;;;;;;;16.80;100.00;98957.25;5039781;28;19929;-43
2022/11/02 01:41:33;;;;;;;;;;;;;;;16.57;100.00;98961.97;5055527;28;19921;-43
2022/11/02 01:44:00;;;;;;;;;;;;;;;16.47;100.00;98979.03;5040353;28;19927;-44
2022/11/02 01:46:34;;;;;;;;;;;;;;;16.31;100.00;98974.69;5023579;28;20305;-43
2022/11/02 01:49:07;;;;;;;;;;;;;;;16.69;100.00;98968.25;5038459;28;19937;-43
2022/11/02 01:51:35;;;;;;;;;;;;;;;16.87;100.00;98958.56;5038813;28;20453;-43
2022/11/02 01:54:11;;;;;;;;;;;;;;;16.57;100.00;98964.59;5040263;28;20006;-43
2022/11/02 01:56:37;;;;;;;;;;;;;;;16.71;100.00;98959.41;5037802;28;19946;-43
2022/11/02 01:59:03;;;;;;;;;;;;;;;16.61;100.00;98968.69;5039255;28;20788;-43
2022/11/02 02:01:28;;;;;;;;;;;;;;;16.21;100.00;98968.31;5055817;28;19920;-43
2022/11/02 02:03:53;;;;;;;;;;;;;;;16.39;100.00;98971.66;5019759;28;19924;-43
2022/11/02 02:06:19;;;;;;;;;;;;;;;16.13;100.00;98975.72;5038599;28;20464;-43
2022/11/02 02:08:45;;;;;;;;;;;;;;;15.99;100.00;98973.06;5036184;28;20344;-43
2022/11/02 02:11:23;;;;;;;;;;;;;;;16.45;100.00;98973.94;5037863;28;19925;-43
2022/11/02 02:13:48;;;;;;;;;;;;;;;16.09;100.00;98974.22;5039777;28;19917;-43
2022/11/02 02:16:14;;;;;;;;;;;;;;;16.11;100.00;98974.97;5038936;28;19948;-43
2022/11/02 02:18:42;;;;;;;;;;;;;;;16.39;100.00;98973.44;5036353;28;20282;-43
2022/11/02 02:21:07;;;;;;;;;;;;;;;16.63;100.00;98964.25;5037400;28;19924;-43
2022/11/02 02:23:35;;;;;;;;;;;;;;;16.44;100.00;98966.19;5039064;28;19928;-42
2022/11/02 02:26:35;;;;;;;;;;;;;;;16.26;100.00;98973.28;5038139;28;19921;-43
2022/11/02 02:29:01;;;;;;;;;;;;;;;16.27;100.00;98969.75;5015541;28;20073;-43
2022/11/02 02:31:29;;;;;;;;;;;;;;;15.81;100.00;98978.31;5035022;28;20377;-43
2022/11/02 02:33:55;;;;;;;;;;;;;;;16.57;100.00;98953.34;5039334;28;19913;-43
2022/11/02 02:36:23;;;;;;;;;;;;;;;16.58;100.00;98963.69;5035924;28;19952;-43
2022/11/02 02:38:53;;;;;;;;;;;;;;;16.04;100.00;98958.88;5037493;28;19956;-43
2022/11/02 02:41:34;;;;;;;;;;;;;;;16.01;100.00;98969.44;5038236;28;19916;-43
2022/11/02 02:43:59;;;;;;;;;;;;;;;16.37;100.00;98962.28;5038801;28;19970;-43
2022/11/02 02:46:26;;;;;;;;;;;;;;;16.40;100.00;98956.91;5039501;28;20356;-43
2022/11/02 02:48:51;;;;;;;;;;;;;;;16.43;100.00;98951.53;5038871;28;20015;-43
2022/11/02 02:51:21;;;;;;;;;;;;;;;16.70;100.00;98949.13;5043217;28;20015;-43
2022/11/02 02:53:48;;;;;;;;;;;;;;;16.18;100.00;98963.31;5038045;28;19925;-43
2022/11/02 02:56:14;;;;;;;;;;;;;;;16.73;100.00;98951.53;5037728;28;20346;-43
2022/11/02 02:58:59;;;;;;;;;;;;;;;16.34;100.00;98939.91;5036528;28;19925;-43
2022/11/02 03:01:24;;;;;;;;;;;;;;;15.75;100.00;98951.84;5036717;28;19990;-43
2022/11/02 03:03:50;;;;;;;;;;;;;;;16.48;100.00;98941.72;5037502;28;20378;-43
2022/11/02 03:06:27;;;;;;;;;;;;;;;16.17;100.00;98959.06;5038553;28;19921;-43
2022/11/02 03:08:58;;;;;;;;;;;;;;;16.55;100.00;98953.44;5036596;28;20795;-43
2022/11/02 03:11:23;;;;;;;;;;;;;;;16.40;100.00;98946.50;5035268;28;20705;-43
2022/11/02 03:13:54;;;;;;;;;;;;;;;16.08;100.00;98954.38;5038815;28;19923;-43
2022/11/02 03:16:39;;;;;;;;;;;;;;;16.55;100.00;98943.03;5036438;28;19920;-43
2022/11/02 03:19:25;;;;;;;;;;;;;;;16.23;100.00;98953.50;5033485;28;19927;-43
2022/11/02 03:21:54;;;;;;;;;;;;;;;15.98;100.00;98948.00;5035488;28;19987;-43
2022/11/02 03:24:22;;;;;;;;;;;;;;;16.14;100.00;98969.59;5038255;28;19927;-43
2022/11/02 03:26:47;;;;;;;;;;;;;;;16.31;100.00;98964.31;5037549;28;19924;-43
2022/11/02 03:29:17;;;;;;;;;;;;;;;16.20;100.00;98956.28;5038295;28;19955;-43
2022/11/02 03:31:46;;;;;;;;;;;;;;;15.91;100.00;98967.44;5037254;28;19975;-43
2022/11/02 03:34:18;;;;;;;;;;;;;;;15.98;100.00;98968.78;5036880;28;19924;-43
2022/11/02 03:36:55;;;;;;;;;;;;;;;16.14;100.00;98974.78;5038461;28;19921;-43
2022/11/02 03:39:21;;;;;;;;;;;;;;;16.14;100.00;98968.75;5036920;28;20024;-43
2022/11/02 03:41:47;;;;;;;;;;;;;;;15.60;100.00;98975.09;5036987;28;19920;-43
2022/11/02 03:44:16;;;;;;;;;;;;;;;15.79;100.00;98972.38;5036096;28;19920;-43
2022/11/02 03:46:42;;;;;;;;;;;;;;;15.97;100.00;98961.91;5037336;28;19947;-43
2022/11/02 03:49:07;;;;;;;;;;;;;;;15.99;100.00;98965.25;5038976;28;19929;-43
2022/11/02 03:51:33;;;;;;;;;;;;;;;16.13;100.00;98967.09;5041096;28;19963;-42
2022/11/02 03:54:01;;;;;;;;;;;;;;;16.01;100.00;98978.97;5042206;28;20530;-42
2022/11/02 03:56:28;;;;;;;;;;;;;;;15.90;100.00;98971.78;5042230;28;19921;-43
2022/11/02 03:58:53;;;;;;;;;;;;;;;15.63;100.00;98979.28;5040801;28;19978;-43
2022/11/02 04:01:18;;;;;;;;;;;;;;;16.10;100.00;98974.13;5041558;28;20001;-42
2022/11/02 04:03:44;;;;;;;;;;;;;;;16.25;100.00;98992.41;5041312;28;19996;-43
2022/11/02 04:06:10;;;;;;;;;;;;;;;15.82;100.00;99000.75;5041535;28;19925;-43
2022/11/02 04:08:36;;;;;;;;;;;;;;;16.02;100.00;98996.25;5038026;28;19935;-43
2022/11/02 04:16:29;;;;;;;;;;;;;;;16.13;100.00;98996.50;5042377;28;19975;-43
2022/11/02 04:21:38;;;;;;;;;;;;;;;15.66;100.00;99024.06;5041353;28;19928;-43
2022/11/02 04:26:48;;;;;;;;;;;;;;;15.39;100.00;99028.94;5041061;28;19928;-43
2022/11/02 04:29:13;;;;;;;;;;;;;;;15.57;100.00;99018.53;5040173;28;20290;-42
2022/11/02 04:31:38;;;;;;;;;;;;;;;15.75;100.00;99019.34;5043058;28;20274;-43
2022/11/02 04:34:03;;;;;;;;;;;;;;;16.04;100.00;99025.59;5042365;28;20278;-43
2022/11/02 04:36:29;;;;;;;;;;;;;;;16.18;100.00;99012.69;5040639;28;19970;-42
2022/11/02 04:38:54;;;;;;;;;;;;;;;15.29;100.00;99038.13;5038473;28;19960;-42
2022/11/02 04:44:04;;;;;;;;;;;;;;;15.65;100.00;99030.19;5040557;28;19998;-42
2022/11/02 04:46:31;;;;;;;;;;;;;;;15.95;100.00;99036.47;5042031;28;19924;-43
2022/11/02 04:48:56;;;;;;;;;;;;;;;16.18;100.00;99023.06;5039717;28;19972;-42
2022/11/02 04:51:21;;;;;;;;;;;;;;;15.58;100.00;99035.78;5041777;28;19963;-43
2022/11/02 04:53:47;;;;;;;;;;;;;;;15.64;100.00;99036.28;5039194;28;20344;-42
2022/11/02 04:56:13;;;;;;;;;;;;;;;15.41;100.00;99042.66;5039832;28;19921;-42
2022/11/02 04:58:38;;;;;;;;;;;;;;;15.89;100.00;99046.25;5038438;28;20274;-42
2022/11/02 05:01:07;;;;;;;;;;;;;;;15.86;100.00;99045.59;5040259;28;19932;-42
2022/11/02 05:03:33;;;;;;;;;;;;;;;15.90;100.00;99047.09;5057056;28;20281;-42
2022/11/02 05:05:58;;;;;;;;;;;;;;;16.02;100.00;99043.00;5040439;28;19928;-42
2022/11/02 05:08:23;;;;;;;;;;;;;;;16.13;100.00;99047.63;5035157;28;19920;-42
2022/11/02 05:10:48;;;;;;;;;;;;;;;14.87;100.00;99070.47;5040997;28;19927;-42
2022/11/02 05:13:14;;;;;;;;;;;;;;;15.08;100.00;99075.50;5041815;28;19920;-42
2022/11/02 05:15:39;;;;;;;;;;;;;;;14.81;100.00;99068.16;5038004;28;19925;-42
2022/11/02 05:18:04;;;;;;;;;;;;;;;15.05;100.00;99066.97;5039689;28;19920;-42
2022/11/02 05:20:29;;;;;;;;;;;;;;;15.17;100.00;99064.69;5040565;28;20369;-43
2022/11/02 05:22:55;;;;;;;;;;;;;;;15.37;100.00;99059.34;5041448;28;20008;-42
2022/11/02 05:25:20;;;;;;;;;;;;;;;15.54;100.00;99052.44;5038100;28;20015;-42
2022/11/02 05:27:45;;;;;;;;;;;;;;;15.58;100.00;99049.59;5037655;28;19925;-42
2022/11/02 05:30:11;;;;;;;;;;;;;;;15.29;100.00;99053.69;5041412;28;19917;-42
2022/11/02 05:32:36;;;;;;;;;;;;;;;15.55;100.00;99054.09;5040315;28;19925;-42
2022/11/02 05:35:01;;;;;;;;;;;;;;;15.66;100.00;99044.00;5042087;28;19917;-42
2022/11/02 05:37:26;;;;;;;;;;;;;;;15.79;100.00;99039.88;5039871;28;20420;-42
2022/11/02 05:39:52;;;;;;;;;;;;;;;15.70;100.00;99053.31;5040850;28;19917;-42
2022/11/02 05:42:17;;;;;;;;;;;;;;;15.47;100.00;99055.34;5040035;28;19920;-42
2022/11/02 05:44:42;;;;;;;;;;;;;;;15.12;100.00;99071.84;5040775;28;19994;-42
2022/11/02 05:47:07;;;;;;;;;;;;;;;15.29;100.00;99074.44;5037452;28;19916;-42
2022/11/02 05:49:32;;;;;;;;;;;;;;;15.66;100.00;99069.97;5039136;28;19924;-42
2022/11/02 05:51:58;;;;;;;;;;;;;;;15.53;100.00;99076.69;5038438;28;20412;-42
2022/11/02 05:54:23;;;;;;;;;;;;;;;15.06;100.00;99089.38;5038124;28;19956;-42
2022/11/02 05:56:48;;;;;;;;;;;;;;;14.67;100.00;99096.50;5039606;28;20032;-42
2022/11/02 05:59:13;;;;;;;;;;;;;;;14.69;100.00;99105.00;5039811;28;19917;-42
2022/11/02 06:01:39;;;;;;;;;;;;;;;14.79;100.00;99111.47;5041915;28;19986;-42
2022/11/02 06:04:04;;;;;;;;;;;;;;;15.01;100.00;99114.72;5038896;28;20986;-42
2022/11/02 06:06:29;;;;;;;;;;;;;;;15.01;100.00;99111.28;5035385;28;19928;-42
2022/11/02 06:08:55;;;;;;;;;;;;;;;14.70;100.00;99110.13;5037147;28;19933;-42
2022/11/02 06:11:20;;;;;;;;;;;;;;;14.38;100.00;99116.78;5039124;28;19974;-42
2022/11/02 06:13:48;;;;;;;;;;;;;;;14.81;100.00;99117.41;5039147;28;19946;-43
2022/11/02 06:16:14;;;;;;;;;;;;;;;14.79;100.00;99120.06;5040273;28;19920;-42
2022/11/02 06:18:40;;;;;;;;;;;;;;;14.71;100.00;99108.38;5035965;28;19921;-42
2022/11/02 06:21:05;;;;;;;;;;;;;;;14.36;100.00;99131.56;5039417;28;19942;-42
2022/11/02 06:23:30;;;;;;;;;;;;;;;15.29;100.00;99125.50;5039836;28;19943;-42
2022/11/02 06:25:56;;;;;;;;;;;;;;;15.55;100.00;99117.22;5040659;28;19913;-42
2022/11/02 06:28:22;;;;;;;;;;;;;;;15.62;100.00;99118.63;5038269;28;19925;-42
2022/11/02 06:30:48;;;;;;;;;;;;;;;14.60;100.00;99133.06;5041064;28;20324;-42
2022/11/02 06:33:13;;;;;;;;;;;;;;;15.06;100.00;99146.44;5040172;28;19974;-42
2022/11/02 06:35:38;;;;;;;;;;;;;;;14.91;100.00;99138.56;5040050;28;19920;-42
2022/11/02 06:38:03;;;;;;;;;;;;;;;14.89;100.00;99150.75;5039776;28;20005;-42
2022/11/02 06:40:29;;;;;;;;;;;;;;;15.25;100.00;99138.59;5055514;28;19917;-42
2022/11/02 06:42:55;;;;;;;;;;;;;;;15.27;100.00;99144.56;5038421;28;19921;-42
2022/11/02 06:45:20;;;;;;;;;;;;;;;15.44;100.00;99135.09;5036945;28;19952;-42
2022/11/02 06:47:46;;;;;;;;;;;;;;;15.04;100.00;99163.00;5039277;28;19921;-42
2022/11/02 06:50:11;;;;;;;;;;;;;;;15.01;100.00;99171.75;5037478;28;20378;-42
2022/11/02 06:52:41;;;;;;;;;;;;;;;15.00;100.00;99179.63;5038028;28;19970;-42
2022/11/02 06:55:06;;;;;;;;;;;;;;;14.97;100.00;99172.81;5040010;28;20007;-42
2022/11/02 06:57:35;;;;;;;;;;;;;;;14.89;100.00;99180.09;5038326;28;20019;-42
2022/11/02 07:00:03;;;;;;;;;;;;;;;14.61;100.00;99186.56;5036776;28;19931;-42
2022/11/02 07:02:29;;;;;;;;;;;;;;;15.03;100.00;99182.91;5037800;28;19928;-42
2022/11/02 07:04:54;;;;;;;;;;;;;;;14.83;100.00;99180.41;5036758;28;19927;-42
2022/11/02 07:07:19;;;;;;;;;;;;;;;15.02;100.00;99183.81;5036910;28;19921;-42
2022/11/02 07:09:44;;;;;;;;;;;;;;;14.83;100.00;99190.78;5039203;28;19924;-43
2022/11/02 07:12:09;;;;;;;;;;;;;;;15.09;100.00;99193.91;5038269;28;20339;-42
2022/11/02 07:14:35;;;;;;;;;;;;;;;14.70;100.00;99189.66;5039313;28;19920;-42
2022/11/02 07:17:00;;;;;;;;;;;;;;;15.55;100.00;99186.47;5038692;28;19921;-43
2022/11/02 07:19:25;;;;;;;;;;;;;;;14.82;100.00;99202.06;5037523;28;19927;-42
2022/11/02 07:21:50;;;;;;;;;;;;;;;15.53;100.00;99194.38;5038465;28;19920;-42
2022/11/02 07:24:15;;;;;;;;;;;;;;;15.10;100.00;99206.81;5038780;28;19920;-42
2022/11/02 07:26:41;;;;;;;;;;;;;;;15.40;100.00;99216.63;5038657;28;19939;-42
2022/11/02 07:29:06;;;;;;;;;;;;;;;15.28;100.00;99223.25;5035892;28;19955;-42
2022/11/02 07:31:31;;;;;;;;;;;;;;;15.83;100.00;99207.59;5038916;28;20030;-42
2022/11/02 07:33:56;;;;;;;;;;;;;;;15.41;100.00;99216.53;5039136;28;20024;-42
2022/11/02 07:36:22;;;;;;;;;;;;;;;15.20;100.00;99222.78;5038646;28;20011;-42
2022/11/02 07:38:47;;;;;;;;;;;;;;;16.21;100.00;99204.78;5037748;28;19952;-42
2022/11/02 07:41:12;;;;;;;;;;;;;;;16.09;100.00;99206.25;5039690;28;19923;-42
2022/11/02 07:43:37;;;;;;;;;;;;;;;15.91;100.00;99219.34;5038104;28;19923;-42
2022/11/02 07:46:03;;;;;;;;;;;;;;;15.39;100.00;99236.53;5039116;28;20423;-42
2022/11/02 07:48:28;;;;;;;;;;;;;;;15.75;100.00;99214.94;5038208;28;20456;-42
2022/11/02 07:50:55;;;;;;;;;;;;;;;15.94;100.00;99237.38;5039119;28;20008;-42
2022/11/02 07:53:20;;;;;;;;;;;;;;;15.54;100.00;99223.75;5038431;28;20382;-42
2022/11/02 07:55:46;;;;;;;;;;;;;;;15.06;100.00;99233.81;5038005;28;19924;-42
2022/11/02 07:58:14;;;;;;;;;;;;;;;15.53;100.00;99233.31;5035305;28;19913;-42
2022/11/02 08:00:42;;;;;;;;;;;;;;;15.35;100.00;99242.81;5036362;28;19921;-42
2022/11/02 08:03:08;;;;;;;;;;;;;;;15.30;100.00;99242.16;5037600;28;19927;-42
2022/11/02 08:05:35;;;;;;;;;;;;;;;15.06;100.00;99250.19;5038273;28;19921;-42
2022/11/02 08:08:01;;;;;;;;;;;;;;;15.08;100.00;99247.53;5033766;28;19928;-42
2022/11/02 08:10:27;;;;;;;;;;;;;;;15.14;100.00;99246.41;5037980;28;20055;-43
2022/11/02 08:12:52;;;;;;;;;;;;;;;14.81;100.00;99260.03;5038964;28;19917;-42
2022/11/02 08:15:17;;;;;;;;;;;;;;;14.62;100.00;99260.84;5034518;28;20385;-42
2022/11/02 08:17:42;;;;;;;;;;;;;;;15.01;100.00;99262.53;5036513;28;19936;-42
2022/11/02 08:20:08;;;;;;;;;;;;;;;15.25;100.00;99257.13;5035640;28;19978;-42
2022/11/02 08:22:37;;;;;;;;;;;;;;;14.63;100.00;99272.03;5037039;28;19972;-42
2022/11/02 08:25:02;;;;;;;;;;;;;;;15.25;100.00;99267.50;5036857;28;20861;-42
2022/11/02 08:27:28;;;;;;;;;;;;;;;14.76;100.00;99268.00;5038136;28;19924;-42
2022/11/02 08:29:53;;;;;;;;;;;;;;;15.21;100.00;99284.97;5034580;28;19968;-42
2022/11/02 08:32:18;;;;;;;;;;;;;;;15.73;100.00;99266.09;5038807;28;19956;-42
2022/11/02 08:34:43;;;;;;;;;;;;;;;14.50;100.00;99287.25;5039367;28;20010;-42
2022/11/02 08:37:09;;;;;;;;;;;;;;;15.08;100.00;99283.84;5038902;28;20036;-42
2022/11/02 08:39:34;;;;;;;;;;;;;;;14.91;100.00;99283.78;5040314;28;20008;-42
2022/11/02 08:41:59;;;;;;;;;;;;;;;14.90;100.00;99306.28;5042702;28;20494;-42
2022/11/02 08:44:24;;;;;;;;;;;;;;;15.10;100.00;99300.19;5041712;28;20368;-42
2022/11/02 08:46:49;;;;;;;;;;;;;;;14.71;100.00;99306.25;5042185;28;20548;-42
2022/11/02 08:49:17;;;;;;;;;;;;;;;15.13;100.00;99307.00;5039188;28;20315;-42
2022/11/02 08:51:42;;;;;;;;;;;;;;;15.21;100.00;99304.88;5041407;28;20215;-42
2022/11/02 08:54:08;;;;;;;;;;;;;;;14.47;100.00;99317.66;5041216;28;19964;-42
2022/11/02 08:56:33;;;;;;;;;;;;;;;14.81;100.00;99323.06;5040575;28;20015;-42
2022/11/02 08:58:58;;;;;;;;;;;;;;;15.27;100.00;99312.38;5040270;28;20008;-42
2022/11/02 09:01:23;;;;;;;;;;;;;;;15.93;100.00;99303.25;5042071;28;20027;-42
2022/11/02 09:03:48;;;;;;;;;;;;;;;15.24;100.00;99309.94;5040949;28;20007;-42
2022/11/02 09:06:14;;;;;;;;;;;;;;;15.38;100.00;99315.31;5041737;28;20008;-41
2022/11/02 09:08:39;;;;;;;;;;;;;;;15.83;100.00;99316.69;5037597;28;20019;-42
2022/11/02 09:11:04;;;;;;;;;;;;;;;15.68;100.00;99314.78;5040922;28;20035;-42
2022/11/02 09:13:29;;;;;;;;;;;;;;;15.82;100.00;99317.56;5040192;28;20734;-42
2022/11/02 09:15:55;;;;;;;;;;;;;;;15.26;100.00;99331.47;5039674;28;19931;-42
2022/11/02 09:18:21;;;;;;;;;;;;;;;15.91;100.00;99329.28;5039077;28;20317;-43
2022/11/02 09:20:47;;;;;;;;;;;;;;;15.86;100.00;99334.69;5041617;28;20352;-42
2022/11/02 09:23:13;;;;;;;;;;;;;;;16.70;100.00;99327.03;5040734;28;19917;-42
2022/11/02 09:25:38;;;;;;;;;;;;;;;15.61;100.00;99339.34;5038115;28;19989;-42
2022/11/02 09:28:03;;;;;;;;;;;;;;;16.44;100.00;99343.13;5040757;28;19943;-43
2022/11/02 09:30:29;;;;;;;;;;;;;;;16.19;100.00;99331.34;5041090;28;19917;-42
2022/11/02 09:32:55;;;;;;;;;;;;;;;16.51;100.00;99342.75;5040068;28;19920;-43
2022/11/02 09:35:20;;;;;;;;;;;;;;;17.13;100.00;99343.00;5040102;28;20046;-42
2022/11/02 09:37:45;;;;;;;;;;;;;;;16.17;100.00;99364.38;5038461;28;20011;-42
2022/11/02 09:40:18;;;;;;;;;;;;;;;16.98;100.00;99350.78;5038065;28;19928;-43
2022/11/02 09:42:46;;;;;;;;;;;;;;;16.78;100.00;99334.44;5039529;28;20028;-43
2022/11/02 09:45:12;;;;;;;;;;;;;;;15.84;100.00;99367.69;5039728;28;19965;-42
2022/11/02 09:47:47;;;;;;;;;;;;;;;15.86;100.00;99365.88;5037746;28;19928;-43
2022/11/02 09:50:15;;;;;;;;;;;;;;;15.44;100.00;99381.66;5038497;28;20023;-43
2022/11/02 09:52:40;;;;;;;;;;;;;;;15.85;100.00;99378.91;5039439;28;20028;-43
2022/11/02 09:55:09;;;;;;;;;;;;;;;16.20;100.00;99373.78;5039071;28;20019;-43
2022/11/02 09:57:34;;;;;;;;;;;;;;;16.25;100.00;99362.25;5038415;28;19954;-42
2022/11/02 09:59:59;;;;;;;;;;;;;;;16.44;100.00;99356.13;5038872;28;19917;-42
2022/11/02 10:02:25;;;;;;;;;;;;;;;16.57;100.00;99366.75;5039612;28;19921;-43
2022/11/02 10:05:02;;;;;;;;;;;;;;;16.10;100.00;99365.59;5037857;28;19956;-42
2022/11/02 10:07:36;;;;;;;;;;;;;;;17.48;100.00;99348.06;5037843;28;20431;-43
2022/11/02 10:10:03;;;;;;;;;;;;;;;17.03;100.00;99352.22;5039515;28;19924;-43
2022/11/02 10:12:37;;;;;;;;;;;;;;;16.73;100.00;99352.88;5037939;28;19924;-43
2022/11/02 10:15:16;;;;;;;;;;;;;;;16.38;100.00;99359.88;5040521;28;19971;-43
2022/11/02 10:17:42;;;;;;;;;;;;;;;17.29;100.00;99350.00;5037999;28;19928;-41
2022/11/02 10:20:13;;;;;;;;;;;;;;;17.20;100.00;99358.31;5038178;28;19921;-42
2022/11/02 10:22:39;;;;;;;;;;;;;;;16.92;100.00;99352.81;5039186;28;19924;-42
2022/11/02 10:25:05;;;;;;;;;;;;;;;17.86;100.00;99360.78;5038680;28;19917;-42
2022/11/02 10:27:32;;;;;;;;;;;;;;;17.56;100.00;99342.41;5036644;28;20019;-42
2022/11/02 10:30:00;;;;;;;;;;;;;;;18.32;100.00;99337.28;5036314;28;19925;-42
2022/11/02 10:32:25;;;;;;;;;;;;;;;16.27;100.00;99370.81;5039771;28;19963;-42
2022/11/02 10:34:50;;;;;;;;;;;;;;;16.68;100.00;99375.69;5037892;28;20008;-42
2022/11/02 10:37:22;;;;;;;;;;;;;;;16.52;100.00;99364.38;5039971;28;19920;-42
2022/11/02 10:40:06;;;;;;;;;;;;;;;16.22;100.00;99372.78;5039596;28;19970;-42
2022/11/02 10:42:49;;;;;;;;;;;;;;;16.44;100.00;99346.56;5039743;28;19928;-43
2022/11/02 10:45:30;;;;;;;;;;;;;;;17.52;100.00;99340.94;5039413;28;20047;-42
2022/11/02 10:48:01;;;;;;;;;;;;;;;16.66;100.00;99345.47;5038796;28;19933;-42
2022/11/02 10:50:41;;;;;;;;;;;;;;;16.28;100.00;99371.63;5038568;28;19928;-42
2022/11/02 10:53:10;;;;;;;;;;;;;;;15.45;100.00;99379.00;5037043;28;19920;-43
2022/11/02 10:55:38;;;;;;;;;;;;;;;15.67;100.00;99376.25;5036134;28;20011;-42
2022/11/02 10:58:03;;;;;;;;;;;;;;;16.17;100.00;99379.97;5037575;28;19920;-42
2022/11/02 11:00:33;;;;;;;;;;;;;;;15.83;100.00;99384.19;5037373;28;20586;-42
2022/11/02 11:03:01;;;;;;;;;;;;;;;16.14;100.00;99379.28;5038062;28;19924;-42
2022/11/02 11:05:26;;;;;;;;;;;;;;;17.09;100.00;99380.53;5038466;28;20400;-42
2022/11/02 11:07:51;;;;;;;;;;;;;;;16.71;100.00;99391.13;5038059;28;19927;-42
2022/11/02 11:10:16;;;;;;;;;;;;;;;16.21;100.00;99401.44;5036463;28;19925;-42
2022/11/02 11:12:42;;;;;;;;;;;;;;;16.09;100.00;99402.88;5037664;28;20485;-42
2022/11/02 11:15:15;;;;;;;;;;;;;;;16.85;100.00;99392.22;5020408;28;20428;-42
2022/11/02 11:17:40;;;;;;;;;;;;;;;16.37;100.00;99411.94;5037476;28;20050;-43
2022/11/02 11:20:07;;;;;;;;;;;;;;;16.79;100.00;99392.50;5036371;28;19960;-43
2022/11/02 11:22:32;;;;;;;;;;;;;;;17.47;100.00;99397.63;5039316;28;19917;-42
2022/11/02 11:25:03;;;;;;;;;;;;;;;17.42;100.00;99391.81;5039466;28;19947;-42
2022/11/02 11:27:29;;;;;;;;;;;;;;;17.43;100.00;99383.94;5038404;28;19917;-42
2022/11/02 11:29:55;;;;;;;;;;;;;;;17.05;100.00;99358.19;5037409;28;20405;-42
2022/11/02 11:32:24;;;;;;;;;;;;;;;17.20;99.69;99356.53;5037600;28;19916;-42
2022/11/02 11:35:09;;;;;;;;;;;;;;;17.87;97.04;99349.41;5037729;28;19917;-42
2022/11/02 11:37:34;;;;;;;;;;;;;;;18.36;96.54;99338.78;5035877;28;20579;-42
2022/11/02 11:40:01;;;;;;;;;;;;;;;18.16;94.75;99345.16;5037687;28;19925;-42
2022/11/02 11:42:27;;;;;;;;;;;;;;;17.45;96.86;99365.63;5036290;28;20385;-42
2022/11/02 11:45:00;;;;;;;;;;;;;;;17.29;99.38;99370.84;5038345;28;20471;-42
2022/11/02 11:47:38;;;;;;;;;;;;;;;17.19;96.80;99370.47;5036616;28;20463;-42
2022/11/02 11:50:11;;;;;;;;;;;;;;;17.28;94.47;99356.13;5037728;28;20471;-42
2022/11/02 11:52:37;;;;;;;;;;;;;;;16.76;94.10;99364.88;5053657;28;19921;-44
2022/11/02 11:55:21;;;;;;;;;;;;;;;17.32;92.22;99360.25;5037606;28;19916;-42
2022/11/02 11:57:47;;;;;;;;;;;;;;;16.95;89.35;99348.38;5039811;28;19920;-42
2022/11/02 12:00:26;;;;;;;;;;;;;;;17.36;92.80;99366.97;5036915;28;20038;-42
2022/11/02 12:03:05;;;;;;;;;;;;;;;17.03;90.06;99365.22;5037099;28;19970;-42
2022/11/02 12:05:31;;;;;;;;;;;;;;;16.01;96.75;99389.41;5039356;28;20235;-42
2022/11/02 12:08:15;;;;;;;;;;;;;;;16.59;97.78;99388.31;5037620;28;19932;-42
2022/11/02 12:10:40;;;;;;;;;;;;;;;17.82;97.04;99374.06;5042440;28;19955;-42
2022/11/02 12:13:12;;;;;;;;;;;;;;;16.55;98.56;99382.41;5042427;28;19975;-42
2022/11/02 12:15:38;;;;;;;;;;;;;;;16.65;98.52;99386.25;5040704;28;19996;-42
2022/11/02 12:18:06;;;;;;;;;;;;;;;18.44;91.74;99353.97;5039774;28;19927;-43
2022/11/02 12:20:37;;;;;;;;;;;;;;;16.40;95.89;99388.38;5041404;28;19917;-42
2022/11/02 12:23:11;;;;;;;;;;;;;;;17.61;93.39;99389.03;5040368;28;19917;-42
2022/11/02 12:25:49;;;;;;;;;;;;;;;17.30;91.10;99383.75;5042604;28;20271;-42
2022/11/02 12:28:32;;;;;;;;;;;;;;;17.42;94.20;99387.44;5039972;28;19964;-42
2022/11/02 12:30:57;;;;;;;;;;;;;;;17.39;93.19;99382.41;5040960;28;20019;-42
2022/11/02 12:33:26;;;;;;;;;;;;;;;17.09;98.97;99400.50;5042531;28;20008;-42
2022/11/02 12:36:11;;;;;;;;;;;;;;;17.52;95.29;99382.59;5042059;28;19920;-42
2022/11/02 12:38:38;;;;;;;;;;;;;;;16.76;99.40;99397.84;5039327;28;20409;-43
2022/11/02 12:41:08;;;;;;;;;;;;;;;18.08;95.49;99369.97;5040128;28;19917;-42
2022/11/02 12:43:33;;;;;;;;;;;;;;;18.99;90.51;99352.44;5041934;28;19916;-42
2022/11/02 12:46:10;;;;;;;;;;;;;;;17.17;90.68;99366.25;5042496;28;20400;-42
2022/11/02 12:48:53;;;;;;;;;;;;;;;17.27;89.06;99367.47;5042337;28;19921;-42
2022/11/02 12:51:54;;;;;;;;;;;;;;;18.07;91.79;99357.88;5042896;28;19917;-42
2022/11/02 12:54:20;;;;;;;;;;;;;;;18.20;87.53;99340.59;5017717;28;19917;-42